DNKN Airport Information

Runway Information
Runway 05 Length 8040 ft width 148 ft
Elevation 1533 ft Threshold 492 ft Heading 44
Runway 23 Length 8040 ft Width 148 ft
Elevation 1501 ft Threshold 0 ft Heading 224
Runway 06 Length 10831 ft width 197 ft
Elevation 1561 ft Threshold 0 ft Heading 61
Runway 24 Length 10831 ft Width 197 ft
Elevation 1506 ft Threshold 0 ft Heading 241
Airport Frequencies
Type APP Name KANO APP Frequency 124.1 MHZ
Type ATIS Name ATIS Frequency 123.6 MHZ
Type TWR Name KANO TWR Frequency 118.1 MHZ
Airport Navaids
Type NDB Name Kano Frequency 376 KHZ
Type VOR-DME Name Kano Frequency 112500 KHZ
Type NDB Name Kano Frequency 260 KHZ
Airport Weather Information & NOTAM
ADDS - METARS form results

(1129 UTC 17 July 2018)
 
METAR text: DNKN 171100Z 24010KT 9999 BKN012 28/23 Q1017 NOSIG
Conditions at: DNKN (KANO/MALLAM AMIN, NG) observed 1100 UTC 17 July 2018
Temperature: 28.0°C (82°F)
Dewpoint: 23.0°C (73°F) [RH = 74%]
Pressure (altimeter): 30.03 inches Hg (1017.0 mb)
Winds: from the WSW (240 degrees) at 12 MPH (10 knots; 5.2 m/s)
Visibility: 6 or more miles (10+ km)
Ceiling: 1200 feet AGL
Clouds: broken clouds at 1200 feet AGL
Weather: no significant weather observed at this time